Time;durP1;ratioP1;P1;durP2;ratioP2;P2;SDS_P1;SDS_P2;PMS_P1;PMS_P2;Temp;Humidity;BMP_temperature;BMP_pressure;BME280_temperature;BME280_humidity;BME280_pressure;Samples;Min_cycle;Max_cycle;Signal;HPM_P1;HPM_P2
2023/06/14 00:01:16;;;;;;;3.47;1.75;;;25.60;1.00;;;;;;4879447;29;20049;-46
2023/06/14 00:03:43;;;;;;;2.63;1.70;;;25.70;1.00;;;;;;4881223;29;20474;-49
2023/06/14 00:06:11;;;;;;;3.67;1.80;;;25.60;1.00;;;;;;4880915;29;20604;-49
2023/06/14 00:08:38;;;;;;;3.28;1.30;;;25.60;1.00;;;;;;4880952;29;20405;-46
2023/06/14 00:11:05;;;;;;;4.78;1.73;;;25.60;1.00;;;;;;4880821;29;20073;-47
2023/06/14 00:13:32;;;;;;;5.60;1.67;;;25.60;1.00;;;;;;4880508;29;20401;-45
2023/06/14 00:15:59;;;;;;;3.53;1.20;;;25.60;1.00;;;;;;4880815;29;20049;-48
2023/06/14 00:18:29;;;;;;;6.13;2.00;;;25.60;1.00;;;;;;4879125;29;20497;-47
2023/06/14 00:20:56;;;;;;;3.08;1.52;;;25.60;1.00;;;;;;4880596;29;20456;-46
2023/06/14 00:23:23;;;;;;;6.38;1.73;;;25.60;1.00;;;;;;4880925;29;20404;-46
2023/06/14 00:25:50;;;;;;;6.28;1.88;;;25.60;1.00;;;;;;4880635;29;20450;-49
2023/06/14 00:28:16;;;;;;;4.25;1.75;;;25.60;1.00;;;;;;4880713;29;20069;-47
2023/06/14 00:30:46;;;;;;;2.65;1.13;;;25.60;1.00;;;;;;4878504;29;20102;-49
2023/06/14 00:33:13;;;;;;;3.03;1.70;;;25.60;1.00;;;;;;4878888;29;20076;-48
2023/06/14 00:35:42;;;;;;;4.50;1.42;;;25.50;1.00;;;;;;4879044;29;20128;-48
2023/06/14 00:38:09;;;;;;;2.67;1.55;;;25.50;1.00;;;;;;4879185;29;20052;-45
2023/06/14 00:40:36;;;;;;;2.45;1.40;;;25.50;1.00;;;;;;4880004;29;20067;-48
2023/06/14 00:43:03;;;;;;;2.05;1.20;;;25.50;1.00;;;;;;4880157;29;20124;-45
2023/06/14 00:45:31;;;;;;;3.70;1.33;;;25.60;1.00;;;;;;4879209;29;20081;-47
2023/06/14 00:47:58;;;;;;;2.47;1.70;;;25.50;1.00;;;;;;4879267;29;20094;-47
2023/06/14 00:50:26;;;;;;;2.80;1.35;;;25.50;1.00;;;;;;4879158;29;20131;-47
2023/06/14 00:52:53;;;;;;;2.70;1.33;;;25.50;1.00;;;;;;4878725;29;20076;-49
2023/06/14 00:55:20;;;;;;;3.08;1.52;;;25.50;1.00;;;;;;4863902;29;20049;-48
2023/06/14 00:57:47;;;;;;;4.38;1.10;;;25.50;1.00;;;;;;4878869;29;20071;-47
2023/06/14 01:00:15;;;;;;;5.13;0.93;;;25.50;1.00;;;;;;4881121;29;20076;-47
2023/06/14 01:02:42;;;;;;;2.60;1.52;;;25.50;1.00;;;;;;4882229;29;20105;-47
2023/06/14 01:05:10;;;;;;;5.00;1.50;;;25.50;1.00;;;;;;4882105;29;20143;-46
2023/06/14 01:08:04;;;;;;;3.20;1.48;;;25.50;1.00;;;;;;4882151;29;20125;-45
2023/06/14 01:10:59;;;;;;;2.42;1.25;;;25.40;1.00;;;;;;4882373;29;20089;-45
2023/06/14 01:13:33;;;;;;;5.65;2.63;;;25.40;1.00;;;;;;4881183;29;20060;-45
2023/06/14 01:16:01;;;;;;;4.13;1.35;;;25.40;1.00;;;;;;4881426;29;20190;-45
2023/06/14 01:18:30;;;;;;;1.95;1.10;;;25.40;1.00;;;;;;4881427;29;20045;-46
2023/06/14 01:20:56;;;;;;;3.03;1.20;;;25.40;1.00;;;;;;4881134;29;20041;-46
2023/06/14 01:23:25;;;;;;;2.65;1.00;;;25.40;1.00;;;;;;4882283;29;20085;-45
2023/06/14 01:25:55;;;;;;;2.47;1.27;;;25.40;1.00;;;;;;4882298;29;20382;-46
2023/06/14 01:28:22;;;;;;;1.20;0.73;;;25.40;1.00;;;;;;4881076;29;20049;-50
2023/06/14 01:30:54;;;;;;;3.25;1.58;;;25.40;1.00;;;;;;4882123;29;20033;-46
2023/06/14 01:33:23;;;;;;;2.92;1.10;;;25.40;1.00;;;;;;4873953;29;20049;-45
2023/06/14 01:35:51;;;;;;;4.20;1.25;;;25.40;1.00;;;;;;4881670;29;20045;-45
2023/06/14 01:38:21;;;;;;;3.83;0.98;;;25.40;1.00;;;;;;4880396;29;20069;-45
2023/06/14 01:40:50;;;;;;;2.72;1.13;;;25.40;1.00;;;;;;4881826;29;20541;-45
2023/06/14 01:43:18;;;;;;;5.10;1.23;;;25.40;1.00;;;;;;4881782;29;20088;-45
2023/06/14 01:45:48;;;;;;;3.65;1.23;;;25.40;1.00;;;;;;4880638;29;20127;-45
2023/06/14 01:48:16;;;;;;;3.65;1.33;;;25.30;1.00;;;;;;4881633;29;20056;-46
2023/06/14 01:50:43;;;;;;;4.90;1.42;;;25.30;1.00;;;;;;4880077;29;20063;-45
2023/06/14 01:53:10;;;;;;;5.60;1.52;;;25.30;1.00;;;;;;4880637;29;20068;-45
2023/06/14 01:55:37;;;;;;;2.58;1.45;;;25.30;1.00;;;;;;4881675;29;20413;-46
2023/06/14 01:58:06;;;;;;;2.15;1.15;;;25.30;1.00;;;;;;4881324;29;20039;-45
2023/06/14 02:00:33;;;;;;;2.65;1.13;;;25.30;1.00;;;;;;4880124;29;20048;-45
2023/06/14 02:03:00;;;;;;;3.63;1.13;;;25.30;1.00;;;;;;4881496;29;20097;-46
2023/06/14 02:05:27;;;;;;;3.25;1.50;;;25.30;1.00;;;;;;4880345;29;20041;-46
2023/06/14 02:07:54;;;;;;;2.75;1.02;;;25.30;1.00;;;;;;4881502;29;20081;-50
2023/06/14 02:10:21;;;;;;;6.05;1.45;;;25.30;1.00;;;;;;4880579;29;20131;-46
2023/06/14 02:12:48;;;;;;;3.50;1.73;;;25.30;1.00;;;;;;4880852;29;20053;-45
2023/06/14 02:15:18;;;;;;;3.17;1.10;;;25.30;1.00;;;;;;4880337;29;20048;-46
2023/06/14 02:17:49;;;;;;;2.78;1.42;;;25.30;1.00;;;;;;4881814;29;20049;-46
2023/06/14 02:20:16;;;;;;;2.95;1.20;;;25.20;1.00;;;;;;4880139;29;20041;-46
2023/06/14 02:22:45;;;;;;;4.53;1.85;;;25.20;1.00;;;;;;4881423;29;20453;-46
2023/06/14 02:25:12;;;;;;;4.00;1.08;;;25.30;1.00;;;;;;4880075;29;20109;-45
2023/06/14 02:27:40;;;;;;;3.05;1.33;;;25.20;1.00;;;;;;4881307;29;20060;-46
2023/06/14 02:30:07;;;;;;;2.35;1.30;;;25.20;1.00;;;;;;4879812;29;20060;-45
2023/06/14 02:32:35;;;;;;;7.72;1.15;;;25.20;1.00;;;;;;4881200;29;20068;-46
2023/06/14 02:35:03;;;;;;;1.95;1.30;;;25.20;1.00;;;;;;4879944;29;20100;-45
2023/06/14 02:37:30;;;;;;;4.38;0.90;;;25.20;1.00;;;;;;4880831;29;20045;-46
2023/06/14 02:39:57;;;;;;;3.88;1.33;;;25.20;1.00;;;;;;4880690;29;20041;-46
2023/06/14 02:42:23;;;;;;;2.75;1.20;;;25.20;1.00;;;;;;4873252;29;20412;-47
2023/06/14 02:44:51;;;;;;;3.22;1.10;;;25.20;1.00;;;;;;4879611;29;20064;-45
2023/06/14 02:47:18;;;;;;;2.70;1.45;;;25.20;1.00;;;;;;4879573;29;20065;-45
2023/06/14 02:49:48;;;;;;;2.33;1.25;;;25.20;1.00;;;;;;4879552;29;20057;-45
2023/06/14 02:52:16;;;;;;;4.50;1.30;;;25.10;1.00;;;;;;4879508;29;20148;-45
2023/06/14 02:54:42;;;;;;;3.53;1.70;;;25.10;1.00;;;;;;4879485;29;20037;-47
2023/06/14 02:57:10;;;;;;;1.98;1.00;;;25.10;1.00;;;;;;4879339;29;20124;-46
2023/06/14 02:59:39;;;;;;;2.20;1.20;;;25.10;1.00;;;;;;4880024;29;20058;-46
2023/06/14 03:02:06;;;;;;;2.22;1.30;;;25.10;1.00;;;;;;4879116;29;20045;-45
2023/06/14 03:04:36;;;;;;;6.22;2.05;;;25.10;1.00;;;;;;4879880;29;20044;-46
2023/06/14 03:07:10;;;;;;;2.42;1.20;;;25.10;1.00;;;;;;4879638;29;20068;-45
2023/06/14 03:09:40;;;;;;;3.23;1.60;;;25.10;1.00;;;;;;4879412;29;20446;-46
2023/06/14 03:12:11;;;;;;;3.83;1.17;;;25.10;1.00;;;;;;4877746;29;20045;-45
2023/06/14 03:14:38;;;;;;;2.53;1.23;;;25.10;1.00;;;;;;4879585;29;20073;-47
2023/06/14 03:17:05;;;;;;;2.15;1.33;;;25.10;1.00;;;;;;4863677;29;20045;-45
2023/06/14 03:19:34;;;;;;;2.42;1.75;;;25.10;1.00;;;;;;4879170;29;20050;-46
2023/06/14 03:22:02;;;;;;;1.45;1.10;;;25.10;1.00;;;;;;4877878;29;20049;-46
2023/06/14 03:24:36;;;;;;;3.83;1.10;;;25.10;1.00;;;;;;4879415;29;20045;-47
2023/06/14 03:27:09;;;;;;;2.55;1.23;;;25.10;1.00;;;;;;4863799;29;20497;-45
2023/06/14 03:29:38;;;;;;;1.45;0.70;;;25.10;1.00;;;;;;4878725;29;20051;-45
2023/06/14 03:32:07;;;;;;;1.55;1.20;;;25.00;1.00;;;;;;4878704;29;20053;-46
2023/06/14 03:34:38;;;;;;;2.95;1.52;;;25.00;1.00;;;;;;4879232;29;20097;-45
2023/06/14 03:37:07;;;;;;;2.92;1.15;;;25.00;1.00;;;;;;4878477;29;20429;-45
2023/06/14 03:39:33;;;;;;;2.92;1.00;;;25.00;1.00;;;;;;4879940;29;20055;-45
2023/06/14 03:42:00;;;;;;;3.15;1.35;;;25.00;1.00;;;;;;4878251;29;20051;-45
2023/06/14 03:44:28;;;;;;;2.17;1.15;;;25.00;1.00;;;;;;4878858;29;20580;-45
2023/06/14 03:46:55;;;;;;;3.53;1.38;;;25.00;1.00;;;;;;4878586;29;20509;-46
2023/06/14 03:49:23;;;;;;;4.68;1.00;;;25.00;1.00;;;;;;4878805;29;20110;-46
2023/06/14 03:51:51;;;;;;;2.03;0.90;;;25.00;1.00;;;;;;4879510;29;20462;-46
2023/06/14 03:54:21;;;;;;;3.58;1.35;;;25.00;1.00;;;;;;4878398;29;20055;-45
2023/06/14 03:56:52;;;;;;;3.67;1.30;;;24.90;1.00;;;;;;4878282;29;20052;-46
2023/06/14 03:59:19;;;;;;;2.17;1.13;;;25.00;1.00;;;;;;4878230;29;20045;-45
2023/06/14 04:01:46;;;;;;;2.17;1.10;;;24.90;1.00;;;;;;4879411;29;20041;-45
2023/06/14 04:04:16;;;;;;;2.50;1.10;;;24.90;1.00;;;;;;4893546;29;20128;-45
2023/06/14 04:06:43;;;;;;;1.73;0.90;;;24.90;1.00;;;;;;4877403;29;20083;-45
2023/06/14 04:09:11;;;;;;;6.43;1.23;;;24.90;1.00;;;;;;4886445;29;20125;-46
2023/06/14 04:11:37;;;;;;;2.10;1.10;;;24.90;1.00;;;;;;4877266;29;20076;-46
2023/06/14 04:14:05;;;;;;;4.68;1.23;;;24.90;1.00;;;;;;4877522;29;20048;-46
2023/06/14 04:16:32;;;;;;;2.75;1.00;;;24.80;1.00;;;;;;4877924;29;20045;-46
2023/06/14 04:19:01;;;;;;;2.03;1.38;;;24.80;1.00;;;;;;4879370;29;20489;-47
2023/06/14 04:21:28;;;;;;;7.03;1.17;;;24.70;1.00;;;;;;4878620;29;20048;-46
2023/06/14 04:23:57;;;;;;;5.47;1.88;;;24.70;1.00;;;;;;4893592;29;20049;-46
2023/06/14 04:26:33;;;;;;;3.70;1.33;;;24.70;1.00;;;;;;4877557;29;20187;-46
2023/06/14 04:29:03;;;;;;;10.65;1.65;;;24.60;1.00;;;;;;4877582;29;20103;-46
2023/06/14 04:31:37;;;;;;;5.78;1.30;;;24.60;1.00;;;;;;4887381;29;20083;-46
2023/06/14 04:34:06;;;;;;;5.90;2.22;;;24.60;1.00;;;;;;4877676;29;20083;-46
2023/06/14 04:36:36;;;;;;;3.67;1.42;;;24.60;1.00;;;;;;4881109;29;20041;-45
2023/06/14 04:39:04;;;;;;;7.18;0.90;;;24.60;1.00;;;;;;4881015;29;20084;-45
2023/06/14 04:41:31;;;;;;;7.43;1.02;;;24.60;1.00;;;;;;4881319;29;20450;-45
2023/06/14 04:44:03;;;;;;;3.65;1.10;;;24.50;1.00;;;;;;4881316;29;20045;-46
2023/06/14 04:46:45;;;;;;;6.75;1.60;;;24.60;1.00;;;;;;4880865;29;20072;-46
2023/06/14 04:49:17;;;;;;;3.22;1.30;;;24.60;1.00;;;;;;4881216;29;20052;-46
2023/06/14 04:51:45;;;;;;;5.75;2.00;;;24.50;1.00;;;;;;4880494;29;20044;-46
2023/06/14 04:54:13;;;;;;;9.48;1.58;;;24.60;1.00;;;;;;4882179;29;20476;-46
2023/06/14 04:56:46;;;;;;;8.50;1.98;;;24.50;1.00;;;;;;4879382;29;20037;-46
2023/06/14 04:59:14;;;;;;;6.93;1.48;;;24.50;1.00;;;;;;4863538;29;20068;-46
2023/06/14 05:01:41;;;;;;;2.90;1.45;;;24.50;1.00;;;;;;4876387;29;20470;-46
2023/06/14 05:04:09;;;;;;;5.25;1.17;;;24.50;1.00;;;;;;4880044;29;20045;-46
2023/06/14 05:06:36;;;;;;;3.95;1.98;;;24.50;1.00;;;;;;4879428;29;20490;-45
2023/06/14 05:09:03;;;;;;;3.47;1.40;;;24.50;1.00;;;;;;4880335;29;20481;-46
2023/06/14 05:11:30;;;;;;;4.10;1.33;;;24.50;1.00;;;;;;4880125;29;20056;-46
2023/06/14 05:13:58;;;;;;;3.33;1.00;;;24.50;1.00;;;;;;4881627;29;20390;-46
2023/06/14 05:16:27;;;;;;;11.52;1.52;;;24.50;1.00;;;;;;4880271;29;20132;-47
2023/06/14 05:18:54;;;;;;;3.50;1.10;;;24.50;1.00;;;;;;4881559;29;20415;-46
2023/06/14 05:21:21;;;;;;;1.77;1.20;;;24.50;1.00;;;;;;4880920;29;20045;-46
2023/06/14 05:23:48;;;;;;;4.53;1.50;;;24.50;1.00;;;;;;4881479;29;20041;-46
2023/06/14 05:26:15;;;;;;;9.38;1.52;;;24.50;1.00;;;;;;4881691;29;20268;-46
2023/06/14 05:28:42;;;;;;;5.53;1.20;;;24.50;1.00;;;;;;4881022;29;20060;-46
2023/06/14 05:31:09;;;;;;;1.80;1.15;;;24.50;1.00;;;;;;4879887;29;20052;-46
2023/06/14 05:33:36;;;;;;;3.35;0.90;;;24.50;1.00;;;;;;4882509;29;20048;-47
2023/06/14 05:36:03;;;;;;;2.40;1.10;;;24.50;1.00;;;;;;4881485;29;20110;-47
2023/06/14 05:38:32;;;;;;;2.72;1.45;;;24.50;1.00;;;;;;4880628;29;20467;-46
2023/06/14 05:40:59;;;;;;;8.60;1.25;;;24.50;1.00;;;;;;4881563;29;20037;-49
2023/06/14 05:43:26;;;;;;;6.20;1.55;;;24.50;1.00;;;;;;4880687;29;20053;-46
2023/06/14 05:45:53;;;;;;;4.38;1.05;;;24.50;1.00;;;;;;4878974;29;20049;-48
2023/06/14 05:48:20;;;;;;;4.50;1.10;;;24.50;1.00;;;;;;4883049;29;20045;-48
2023/06/14 05:50:47;;;;;;;2.67;1.42;;;24.50;1.00;;;;;;4884061;29;20116;-47
2023/06/14 05:53:14;;;;;;;4.63;1.30;;;24.50;1.00;;;;;;4885271;29;20087;-46
2023/06/14 05:55:40;;;;;;;5.03;1.48;;;24.50;1.00;;;;;;4882466;29;20556;-46
2023/06/14 05:58:07;;;;;;;1.92;0.77;;;24.50;1.00;;;;;;4882782;29;20049;-46
2023/06/14 06:00:34;;;;;;;1.73;1.23;;;24.50;1.00;;;;;;4882877;29;20053;-48
2023/06/14 06:03:01;;;;;;;2.42;1.02;;;24.50;1.00;;;;;;4881819;29;20489;-47
2023/06/14 06:05:28;;;;;;;6.18;1.30;;;24.50;1.00;;;;;;4884509;29;20049;-46
2023/06/14 06:07:55;;;;;;;3.92;1.33;;;24.50;1.00;;;;;;4883798;29;20045;-48
2023/06/14 06:10:22;;;;;;;2.72;1.17;;;24.50;1.00;;;;;;4884142;29;20055;-46
2023/06/14 06:12:51;;;;;;;2.60;1.10;;;24.50;1.00;;;;;;4885282;29;20052;-47
2023/06/14 06:15:18;;;;;;;6.07;1.10;;;24.50;1.00;;;;;;4884256;29;20580;-46
2023/06/14 06:17:46;;;;;;;2.45;1.10;;;24.50;1.00;;;;;;4885336;29;20061;-46
2023/06/14 06:20:27;;;;;;;4.82;0.98;;;24.60;1.00;;;;;;4884056;29;20045;-45
2023/06/14 06:22:55;;;;;;;1.45;0.88;;;24.60;1.00;;;;;;4885115;29;20143;-46
2023/06/14 06:25:22;;;;;;;1.17;0.85;;;24.60;1.00;;;;;;4885075;29;20100;-46
2023/06/14 06:27:49;;;;;;;1.42;1.10;;;24.60;1.00;;;;;;4884845;29;20041;-47
2023/06/14 06:30:16;;;;;;;3.90;1.13;;;24.60;1.00;;;;;;4885011;29;20049;-48
2023/06/14 06:32:43;;;;;;;2.75;1.35;;;24.60;1.00;;;;;;4881678;29;20045;-46
2023/06/14 06:35:10;;;;;;;2.67;1.35;;;24.60;1.00;;;;;;4880604;29;20092;-47
2023/06/14 06:37:39;;;;;;;2.88;1.10;;;24.60;1.00;;;;;;4879481;29;20045;-46
2023/06/14 06:40:07;;;;;;;1.92;1.10;;;24.60;1.00;;;;;;4880311;29;20052;-46
2023/06/14 06:42:34;;;;;;;4.43;1.23;;;24.60;1.00;;;;;;4880229;29;20041;-46
2023/06/14 06:45:05;;;;;;;3.35;1.13;;;24.60;1.00;;;;;;4879659;29;20231;-47
2023/06/14 06:47:36;;;;;;;3.63;1.27;;;24.60;1.00;;;;;;4880346;29;20092;-46
2023/06/14 06:50:03;;;;;;;2.70;1.48;;;24.70;1.00;;;;;;4880609;29;20041;-47
2023/06/14 06:52:30;;;;;;;4.15;0.90;;;24.70;1.00;;;;;;4879623;29;20457;-46
2023/06/14 06:54:57;;;;;;;4.03;1.10;;;24.70;1.00;;;;;;4878803;29;20060;-47
2023/06/14 06:57:24;;;;;;;2.22;1.02;;;24.70;1.00;;;;;;4879775;29;20696;-46
2023/06/14 06:59:51;;;;;;;1.55;0.85;;;24.70;1.00;;;;;;4879059;29;20129;-49
2023/06/14 07:02:18;;;;;;;2.97;1.30;;;24.70;1.00;;;;;;4878423;29;20049;-46
2023/06/14 07:04:45;;;;;;;5.57;1.35;;;24.70;1.00;;;;;;4880181;29;20124;-45
2023/06/14 07:07:12;;;;;;;2.78;1.25;;;24.70;1.00;;;;;;4880308;29;20053;-45
2023/06/14 07:09:40;;;;;;;2.83;1.13;;;24.70;1.00;;;;;;4879638;29;20045;-50
2023/06/14 07:12:07;;;;;;;2.88;1.15;;;24.70;1.00;;;;;;4878327;29;20075;-46
2023/06/14 07:14:34;;;;;;;2.45;1.05;;;24.80;1.00;;;;;;4880058;29;20105;-46
2023/06/14 07:17:01;;;;;;;3.55;1.20;;;24.80;1.00;;;;;;4879461;29;20055;-46
2023/06/14 07:19:28;;;;;;;3.80;1.02;;;24.80;1.00;;;;;;4879716;29;20127;-47
2023/06/14 07:21:55;;;;;;;2.55;1.23;;;24.80;1.00;;;;;;4879119;29;20045;-47
2023/06/14 07:24:22;;;;;;;1.58;0.90;;;24.80;1.00;;;;;;4878262;29;20086;-46
2023/06/14 07:26:49;;;;;;;2.33;1.15;;;24.80;1.00;;;;;;4879007;29;20052;-49
2023/06/14 07:29:16;;;;;;;1.77;0.88;;;24.80;1.00;;;;;;4879367;29;20049;-48
2023/06/14 07:31:43;;;;;;;2.15;1.15;;;24.80;1.00;;;;;;4879015;29;20053;-48
2023/06/14 07:34:10;;;;;;;2.60;1.10;;;24.80;1.00;;;;;;4879485;29;20041;-46
2023/06/14 07:36:37;;;;;;;1.85;1.17;;;24.80;1.00;;;;;;4878908;29;20120;-46
2023/06/14 07:39:06;;;;;;;2.25;1.23;;;24.80;1.00;;;;;;4879145;29;20044;-46
2023/06/14 07:41:33;;;;;;;1.20;0.93;;;24.80;1.00;;;;;;4877701;29;20348;-48
2023/06/14 07:43:59;;;;;;;2.15;1.15;;;24.90;1.00;;;;;;4878093;29;20041;-46
2023/06/14 07:46:26;;;;;;;4.75;1.23;;;24.90;1.00;;;;;;4878769;29;20079;-48
2023/06/14 07:48:53;;;;;;;4.57;1.13;;;24.90;1.00;;;;;;4878946;29;20045;-46
2023/06/14 07:51:22;;;;;;;2.05;1.00;;;24.90;1.00;;;;;;4878424;29;20131;-47
2023/06/14 07:53:49;;;;;;;4.70;1.30;;;24.90;1.00;;;;;;4879040;29;20445;-46
2023/06/14 07:56:16;;;;;;;2.65;1.27;;;24.90;1.00;;;;;;4892928;29;20052;-45
2023/06/14 07:58:43;;;;;;;2.17;1.30;;;24.90;1.00;;;;;;4878727;29;20048;-46
2023/06/14 08:01:11;;;;;;;1.63;1.08;;;25.00;1.00;;;;;;4878118;29;20041;-47
2023/06/14 08:03:38;;;;;;;2.28;1.00;;;25.00;1.00;;;;;;4877191;29;20386;-48
2023/06/14 08:06:06;;;;;;;2.55;1.45;;;25.00;1.00;;;;;;4877325;29;20056;-46
2023/06/14 08:08:33;;;;;;;12.27;1.70;;;25.00;1.00;;;;;;4878828;29;20049;-47
2023/06/14 08:11:00;;;;;;;2.70;1.52;;;25.00;1.00;;;;;;4883108;29;20132;-46
2023/06/14 08:13:27;;;;;;;4.15;1.20;;;25.00;1.00;;;;;;4884992;29;20049;-46
2023/06/14 08:15:55;;;;;;;1.80;1.13;;;25.00;1.00;;;;;;4885675;29;20397;-46
2023/06/14 08:18:22;;;;;;;2.13;1.30;;;25.00;1.00;;;;;;4884825;29;20049;-47
2023/06/14 08:20:49;;;;;;;3.83;1.25;;;25.00;1.00;;;;;;4884685;29;20378;-48
2023/06/14 08:23:18;;;;;;;1.30;1.13;;;25.00;1.00;;;;;;4884471;29;20386;-46
2023/06/14 08:25:45;;;;;;;4.57;1.10;;;25.00;1.00;;;;;;4885099;29;20049;-46
2023/06/14 08:28:12;;;;;;;4.25;1.55;;;25.00;1.00;;;;;;4884555;29;20076;-47
2023/06/14 08:30:39;;;;;;;2.08;1.35;;;25.10;1.00;;;;;;4899422;29;20120;-51
2023/06/14 08:33:06;;;;;;;2.75;1.60;;;25.10;1.00;;;;;;4884671;29;20048;-47
2023/06/14 08:35:43;;;;;;;3.67;1.45;;;25.10;1.00;;;;;;4884979;29;20124;-47
2023/06/14 08:38:11;;;;;;;2.38;1.38;;;25.10;1.00;;;;;;4885029;29;20053;-46
2023/06/14 08:40:41;;;;;;;2.75;1.42;;;25.10;1.00;;;;;;4884541;29;20405;-48
2023/06/14 08:43:08;;;;;;;2.80;1.20;;;25.10;1.00;;;;;;4884537;29;20041;-47
2023/06/14 08:45:35;;;;;;;1.92;1.23;;;25.10;1.00;;;;;;4884795;29;20124;-47
2023/06/14 08:48:02;;;;;;;1.83;1.30;;;25.10;1.00;;;;;;4884368;29;20056;-50
2023/06/14 08:50:31;;;;;;;4.40;1.73;;;25.10;1.00;;;;;;4884353;29;20049;-48
2023/06/14 08:53:02;;;;;;;4.45;1.20;;;25.10;1.00;;;;;;4884337;29;20041;-47
2023/06/14 08:55:32;;;;;;;1.75;1.42;;;25.10;1.00;;;;;;4884617;29;20049;-48
2023/06/14 08:58:04;;;;;;;13.45;1.70;;;25.10;1.00;;;;;;4884801;29;20085;-48
2023/06/14 09:00:32;;;;;;;1.92;1.42;;;25.10;1.00;;;;;;4883138;29;20101;-46
2023/06/14 09:03:00;;;;;;;2.05;1.15;;;25.10;1.00;;;;;;4884102;29;20512;-50
2023/06/14 09:05:28;;;;;;;2.78;1.42;;;25.10;1.00;;;;;;4884530;29;20128;-46
2023/06/14 09:07:56;;;;;;;2.65;1.45;;;25.10;1.00;;;;;;4883048;29;20119;-47
2023/06/14 09:10:23;;;;;;;1.88;1.30;;;25.10;1.00;;;;;;4884106;29;20059;-48
2023/06/14 09:12:51;;;;;;;2.92;1.35;;;25.10;1.00;;;;;;4884144;29;20069;-47
2023/06/14 09:15:18;;;;;;;2.85;1.38;;;25.10;1.00;;;;;;4884463;29;20128;-46
2023/06/14 09:17:45;;;;;;;2.95;1.48;;;25.10;1.00;;;;;;4883949;29;20069;-48
2023/06/14 09:20:18;;;;;;;3.25;1.60;;;25.10;1.00;;;;;;4883353;29;20124;-47
2023/06/14 09:22:46;;;;;;;2.50;1.50;;;25.10;1.00;;;;;;4873739;29;20414;-47
2023/06/14 09:25:15;;;;;;;3.92;1.30;;;25.20;1.00;;;;;;4881174;29;20048;-48
2023/06/14 09:27:59;;;;;;;2.88;1.15;;;25.20;1.00;;;;;;4881445;29;20109;-46
2023/06/14 09:30:26;;;;;;;2.65;1.20;;;25.20;1.00;;;;;;4881079;29;20041;-45
2023/06/14 09:32:53;;;;;;;2.05;0.98;;;25.20;1.00;;;;;;4880824;29;20357;-45
2023/06/14 09:35:20;;;;;;;1.95;1.02;;;25.20;1.00;;;;;;4880925;29;20468;-45
2023/06/14 09:37:47;;;;;;;3.08;1.38;;;25.20;1.00;;;;;;4881160;29;20410;-46
2023/06/14 09:40:20;;;;;;;2.35;1.60;;;25.20;1.00;;;;;;4880965;29;20069;-45
2023/06/14 09:42:48;;;;;;;2.78;1.38;;;25.20;1.00;;;;;;4881272;29;20065;-48
2023/06/14 09:45:19;;;;;;;4.43;1.63;;;25.20;1.00;;;;;;4880718;29;20053;-50
2023/06/14 09:47:47;;;;;;;1.58;0.90;;;25.20;1.00;;;;;;4873087;29;20120;-45
2023/06/14 09:50:31;;;;;;;2.00;1.23;;;25.20;1.00;;;;;;4879282;29;20057;-45
2023/06/14 09:53:05;;;;;;;2.78;1.20;;;25.20;1.00;;;;;;4880738;29;20409;-45
2023/06/14 09:55:35;;;;;;;2.65;1.90;;;25.20;1.00;;;;;;4879452;29;20049;-46
2023/06/14 09:58:06;;;;;;;1.00;0.70;;;25.20;1.00;;;;;;4880395;29;20055;-46
2023/06/14 10:00:35;;;;;;;1.88;1.05;;;25.20;1.00;;;;;;4880629;29;20044;-46
2023/06/14 10:03:11;;;;;;;1.70;1.10;;;25.20;1.00;;;;;;4880183;29;20121;-46
2023/06/14 10:05:41;;;;;;;5.10;0.95;;;25.20;1.00;;;;;;4880571;29;20045;-47
2023/06/14 10:08:13;;;;;;;3.05;1.20;;;25.20;1.00;;;;;;4879905;29;20052;-45
2023/06/14 10:10:40;;;;;;;5.07;1.27;;;25.20;1.00;;;;;;4880763;29;20401;-46
2023/06/14 10:13:07;;;;;;;1.98;1.02;;;25.20;1.00;;;;;;4879327;29;20104;-46
2023/06/14 10:15:46;;;;;;;3.03;1.00;;;25.20;1.00;;;;;;4880986;29;20409;-46
2023/06/14 10:18:45;;;;;;;2.17;0.98;;;25.20;1.00;;;;;;4881006;29;20045;-50
2023/06/14 10:21:39;;;;;;;2.95;1.30;;;25.20;1.00;;;;;;4880720;29;20037;-49
2023/06/14 10:24:10;;;;;;;2.17;1.52;;;25.20;1.00;;;;;;4879643;29;20037;-52
2023/06/14 10:26:51;;;;;;;2.33;1.00;;;25.20;1.00;;;;;;4880628;29;20052;-47
2023/06/14 10:29:18;;;;;;;3.40;1.15;;;25.20;1.00;;;;;;4880765;29;20053;-48
2023/06/14 10:31:56;;;;;;;1.75;1.58;;;25.20;1.00;;;;;;4879767;29;20047;-48
2023/06/14 10:34:24;;;;;;;2.35;1.02;;;25.20;1.00;;;;;;4880563;29;20135;-49
2023/06/14 10:37:02;;;;;;;2.38;1.23;;;25.20;1.00;;;;;;4880002;29;20089;-48
2023/06/14 10:39:30;;;;;;;1.98;1.05;;;25.20;1.00;;;;;;4880650;29;20056;-47
2023/06/14 10:42:01;;;;;;;3.03;1.20;;;25.20;1.00;;;;;;4879860;29;20055;-50
2023/06/14 10:44:39;;;;;;;2.90;1.10;;;25.20;1.00;;;;;;4880355;29;20048;-50
2023/06/14 10:47:24;;;;;;;2.13;1.40;;;25.20;1.00;;;;;;4880873;29;20470;-48
2023/06/14 10:49:55;;;;;;;1.27;0.77;;;25.20;1.00;;;;;;4880544;29;20052;-47
2023/06/14 10:52:28;;;;;;;2.42;1.00;;;25.20;1.00;;;;;;4878489;29;20060;-45
2023/06/14 10:55:22;;;;;;;1.15;0.70;;;25.20;1.00;;;;;;4879543;29;20045;-46
2023/06/14 10:57:58;;;;;;;1.52;1.13;;;25.20;1.00;;;;;;4879230;29;20069;-48
2023/06/14 11:00:27;;;;;;;3.40;1.20;;;25.20;1.00;;;;;;4879539;29;20045;-50
2023/06/14 11:03:43;;;;;;;2.15;1.17;;;25.20;1.00;;;;;;4879538;29;20549;-49
2023/06/14 11:06:14;;;;;;;2.00;1.10;;;25.20;1.00;;;;;;4879905;29;20166;-49
2023/06/14 11:09:24;;;;;;;1.95;0.85;;;25.20;1.00;;;;;;4879370;29;20498;-48
2023/06/14 11:11:53;;;;;;;2.38;1.23;;;25.20;1.00;;;;;;4879608;29;20049;-46
2023/06/14 11:14:20;;;;;;;3.80;1.13;;;25.20;1.00;;;;;;4879684;29;20049;-46
2023/06/14 11:16:49;;;;;;;1.65;0.80;;;25.20;1.00;;;;;;4879389;29;20040;-46
2023/06/14 11:19:17;;;;;;;1.77;1.17;;;25.20;1.00;;;;;;4879779;29;20087;-46
2023/06/14 11:21:47;;;;;;;3.05;1.20;;;25.20;1.00;;;;;;4879152;29;20037;-48
2023/06/14 11:24:14;;;;;;;3.10;1.08;;;25.20;1.00;;;;;;4879597;29;20045;-45
2023/06/14 11:26:41;;;;;;;4.53;1.00;;;25.10;1.00;;;;;;4879230;29;20048;-51
2023/06/14 11:29:09;;;;;;;2.35;1.23;;;25.10;1.00;;;;;;4879140;29;20068;-49
2023/06/14 11:31:35;;;;;;;2.08;1.40;;;25.20;1.00;;;;;;4878627;29;20511;-47
2023/06/14 11:34:03;;;;;;;1.40;0.93;;;25.10;1.00;;;;;;4879154;29;20045;-48
2023/06/14 11:36:31;;;;;;;4.43;1.20;;;25.10;1.00;;;;;;4879000;29;20033;-49
2023/06/14 11:39:08;;;;;;;1.58;1.13;;;25.20;1.00;;;;;;4879175;29;20037;-47
2023/06/14 11:41:41;;;;;;;1.45;0.95;;;25.10;1.00;;;;;;4878961;29;20045;-47
2023/06/14 11:44:08;;;;;;;2.25;1.30;;;25.10;1.00;;;;;;4878287;29;20045;-46
2023/06/14 11:46:35;;;;;;;2.00;1.00;;;25.10;1.00;;;;;;4878810;29;20044;-46
2023/06/14 11:49:04;;;;;;;3.55;1.13;;;25.10;1.00;;;;;;4878794;29;20442;-44
2023/06/14 11:51:33;;;;;;;1.20;0.80;;;25.10;1.00;;;;;;4878603;29;20052;-45
2023/06/14 11:54:05;;;;;;;3.33;1.40;;;25.10;1.00;;;;;;4879082;29;20051;-48
2023/06/14 11:56:32;;;;;;;2.15;1.02;;;25.10;1.00;;;;;;4878978;29;20472;-48
2023/06/14 11:59:02;;;;;;;2.33;1.50;;;25.10;1.00;;;;;;4878188;29;20493;-47
2023/06/14 12:01:30;;;;;;;3.33;1.15;;;25.10;1.00;;;;;;4874557;29;20143;-47
2023/06/14 12:03:56;;;;;;;7.03;1.48;;;25.10;1.00;;;;;;4870052;29;20037;-45
2023/06/14 12:06:39;;;;;;;1.95;1.40;;;25.10;1.00;;;;;;4879011;29;20045;-50
2023/06/14 12:09:12;;;;;;;7.38;1.55;;;25.10;1.00;;;;;;4878664;29;20037;-53
2023/06/14 12:11:39;;;;;;;3.42;1.50;;;25.10;1.00;;;;;;4878462;29;20049;-45
2023/06/14 12:14:08;;;;;;;4.07;1.48;;;25.10;1.00;;;;;;4879207;29;20091;-47
2023/06/14 12:16:37;;;;;;;7.85;1.70;;;25.10;1.00;;;;;;4879098;29;20132;-47
2023/06/14 12:19:14;;;;;;;7.38;1.83;;;25.10;1.00;;;;;;4878908;29;20512;-46
2023/06/14 12:21:44;;;;;;;2.90;1.63;;;25.10;1.00;;;;;;4878491;29;20405;-46
2023/06/14 12:24:12;;;;;;;3.08;1.85;;;25.10;1.00;;;;;;4879217;29;20045;-48
2023/06/14 12:26:41;;;;;;;5.38;1.55;;;25.10;1.00;;;;;;4878927;29;20056;-46
2023/06/14 12:29:08;;;;;;;2.13;1.80;;;25.10;1.00;;;;;;4876713;29;20128;-50
2023/06/14 12:31:35;;;;;;;2.33;1.30;;;25.10;1.00;;;;;;4878549;29;20192;-46
2023/06/14 12:34:02;;;;;;;5.03;1.42;;;25.10;1.00;;;;;;4879181;29;20124;-50
2023/06/14 12:36:31;;;;;;;3.28;1.67;;;25.10;1.00;;;;;;4878301;29;20077;-50
2023/06/14 12:38:58;;;;;;;1.92;1.30;;;25.00;1.00;;;;;;4878262;29;20041;-49
2023/06/14 12:41:26;;;;;;;2.75;1.10;;;25.00;1.00;;;;;;4873939;29;20040;-48
2023/06/14 12:43:54;;;;;;;2.17;1.40;;;25.00;1.00;;;;;;4878393;29;20123;-48
2023/06/14 12:46:20;;;;;;;4.15;1.30;;;25.00;1.00;;;;;;4878595;29;20045;-47
2023/06/14 12:48:47;;;;;;;2.53;1.35;;;25.00;1.00;;;;;;4878602;29;20493;-47
2023/06/14 12:51:14;;;;;;;3.72;1.20;;;25.00;1.00;;;;;;4876289;29;20060;-46
2023/06/14 12:53:41;;;;;;;3.42;1.35;;;25.00;1.00;;;;;;4878117;29;20182;-46
2023/06/14 12:56:08;;;;;;;2.38;0.93;;;25.00;1.00;;;;;;4880770;29;20127;-49
2023/06/14 12:58:35;;;;;;;5.18;1.55;;;25.00;1.00;;;;;;4882278;29;20045;-48
2023/06/14 13:01:01;;;;;;;2.00;0.93;;;25.00;1.00;;;;;;4882451;29;20121;-51
2023/06/14 13:03:28;;;;;;;3.85;1.42;;;25.00;1.00;;;;;;4880970;29;20053;-49
2023/06/14 13:05:56;;;;;;;3.60;1.60;;;25.00;1.00;;;;;;4882790;29;20048;-50
2023/06/14 13:08:22;;;;;;;6.22;2.75;;;25.00;1.00;;;;;;4882225;29;20069;-47